sensor_id;sensor_type;location;lat;lon;timestamp;P1;durP1;ratioP1;P2;durP2;ratioP2
4565;SDS011;2295;51.050;14.608;2023-07-24T00:00:43;6.80;;;3.23;;
4565;SDS011;2295;51.050;14.608;2023-07-24T00:03:11;6.70;;;4.00;;
4565;SDS011;2295;51.050;14.608;2023-07-24T00:05:40;6.33;;;4.30;;
4565;SDS011;2295;51.050;14.608;2023-07-24T00:08:08;11.80;;;4.10;;
4565;SDS011;2295;51.050;14.608;2023-07-24T00:10:36;4.63;;;3.50;;
4565;SDS011;2295;51.050;14.608;2023-07-24T00:13:06;4.93;;;3.67;;
4565;SDS011;2295;51.050;14.608;2023-07-24T00:15:35;7.10;;;4.00;;
4565;SDS011;2295;51.050;14.608;2023-07-24T00:18:05;6.03;;;3.70;;
4565;SDS011;2295;51.050;14.608;2023-07-24T00:20:34;8.90;;;4.43;;
4565;SDS011;2295;51.050;14.608;2023-07-24T00:23:02;12.90;;;4.40;;
4565;SDS011;2295;51.050;14.608;2023-07-24T00:25:30;5.33;;;3.93;;
4565;SDS011;2295;51.050;14.608;2023-07-24T00:27:59;7.03;;;3.87;;
4565;SDS011;2295;51.050;14.608;2023-07-24T00:30:28;7.03;;;4.13;;
4565;SDS011;2295;51.050;14.608;2023-07-24T00:32:57;6.17;;;4.23;;
4565;SDS011;2295;51.050;14.608;2023-07-24T00:35:25;5.43;;;3.60;;
4565;SDS011;2295;51.050;14.608;2023-07-24T00:37:53;4.53;;;3.67;;
4565;SDS011;2295;51.050;14.608;2023-07-24T00:40:22;4.53;;;4.00;;
4565;SDS011;2295;51.050;14.608;2023-07-24T00:42:50;7.90;;;3.80;;
4565;SDS011;2295;51.050;14.608;2023-07-24T00:45:18;4.70;;;3.70;;
4565;SDS011;2295;51.050;14.608;2023-07-24T00:47:50;8.10;;;3.70;;
4565;SDS011;2295;51.050;14.608;2023-07-24T00:50:19;8.43;;;4.10;;
4565;SDS011;2295;51.050;14.608;2023-07-24T00:52:47;5.80;;;3.50;;
4565;SDS011;2295;51.050;14.608;2023-07-24T00:55:15;3.60;;;3.30;;
4565;SDS011;2295;51.050;14.608;2023-07-24T00:57:44;7.57;;;3.90;;
4565;SDS011;2295;51.050;14.608;2023-07-24T01:00:12;4.57;;;3.60;;
4565;SDS011;2295;51.050;14.608;2023-07-24T01:02:41;5.57;;;3.77;;
4565;SDS011;2295;51.050;14.608;2023-07-24T01:05:12;4.83;;;4.30;;
4565;SDS011;2295;51.050;14.608;2023-07-24T01:07:41;6.77;;;3.40;;
4565;SDS011;2295;51.050;14.608;2023-07-24T01:10:10;5.23;;;4.27;;
4565;SDS011;2295;51.050;14.608;2023-07-24T01:12:39;11.00;;;4.37;;
4565;SDS011;2295;51.050;14.608;2023-07-24T01:15:16;3.77;;;3.17;;
4565;SDS011;2295;51.050;14.608;2023-07-24T01:17:56;5.53;;;3.30;;
4565;SDS011;2295;51.050;14.608;2023-07-24T01:20:29;5.13;;;3.90;;
4565;SDS011;2295;51.050;14.608;2023-07-24T01:23:05;4.80;;;3.60;;
4565;SDS011;2295;51.050;14.608;2023-07-24T01:28:32;5.33;;;3.93;;
4565;SDS011;2295;51.050;14.608;2023-07-24T01:31:00;8.43;;;4.07;;
4565;SDS011;2295;51.050;14.608;2023-07-24T01:33:29;3.53;;;3.10;;
4565;SDS011;2295;51.050;14.608;2023-07-24T01:36:00;11.57;;;3.97;;
4565;SDS011;2295;51.050;14.608;2023-07-24T01:38:31;5.20;;;3.60;;
4565;SDS011;2295;51.050;14.608;2023-07-24T01:41:03;4.03;;;3.10;;
4565;SDS011;2295;51.050;14.608;2023-07-24T01:43:32;6.00;;;4.30;;
4565;SDS011;2295;51.050;14.608;2023-07-24T01:46:00;6.73;;;3.80;;
4565;SDS011;2295;51.050;14.608;2023-07-24T01:48:28;4.87;;;4.10;;
4565;SDS011;2295;51.050;14.608;2023-07-24T01:50:57;8.17;;;4.43;;
4565;SDS011;2295;51.050;14.608;2023-07-24T01:53:25;5.37;;;4.37;;
4565;SDS011;2295;51.050;14.608;2023-07-24T01:55:53;4.53;;;3.77;;
4565;SDS011;2295;51.050;14.608;2023-07-24T01:58:23;3.83;;;3.30;;
4565;SDS011;2295;51.050;14.608;2023-07-24T02:00:54;7.90;;;4.50;;
4565;SDS011;2295;51.050;14.608;2023-07-24T02:03:23;4.53;;;3.90;;
4565;SDS011;2295;51.050;14.608;2023-07-24T02:05:51;7.03;;;3.80;;
4565;SDS011;2295;51.050;14.608;2023-07-24T02:08:19;4.50;;;3.80;;
4565;SDS011;2295;51.050;14.608;2023-07-24T02:10:48;6.80;;;4.00;;
4565;SDS011;2295;51.050;14.608;2023-07-24T02:13:17;4.30;;;3.80;;
4565;SDS011;2295;51.050;14.608;2023-07-24T02:15:47;6.23;;;3.60;;
4565;SDS011;2295;51.050;14.608;2023-07-24T02:18:16;4.83;;;3.37;;
4565;SDS011;2295;51.050;14.608;2023-07-24T02:20:48;8.23;;;4.10;;
4565;SDS011;2295;51.050;14.608;2023-07-24T02:23:17;5.43;;;4.07;;
4565;SDS011;2295;51.050;14.608;2023-07-24T02:25:45;4.03;;;3.63;;
4565;SDS011;2295;51.050;14.608;2023-07-24T02:28:17;4.93;;;3.83;;
4565;SDS011;2295;51.050;14.608;2023-07-24T02:30:47;9.00;;;4.50;;
4565;SDS011;2295;51.050;14.608;2023-07-24T02:33:15;5.30;;;3.43;;
4565;SDS011;2295;51.050;14.608;2023-07-24T02:35:43;4.30;;;3.67;;
4565;SDS011;2295;51.050;14.608;2023-07-24T02:38:12;5.63;;;4.10;;
4565;SDS011;2295;51.050;14.608;2023-07-24T02:40:40;8.90;;;4.37;;
4565;SDS011;2295;51.050;14.608;2023-07-24T02:43:09;4.70;;;3.80;;
4565;SDS011;2295;51.050;14.608;2023-07-24T02:45:37;7.73;;;3.63;;
4565;SDS011;2295;51.050;14.608;2023-07-24T02:48:07;6.17;;;4.00;;
4565;SDS011;2295;51.050;14.608;2023-07-24T02:50:35;5.90;;;4.23;;
4565;SDS011;2295;51.050;14.608;2023-07-24T02:53:03;7.60;;;4.10;;
4565;SDS011;2295;51.050;14.608;2023-07-24T02:55:32;7.43;;;4.20;;
4565;SDS011;2295;51.050;14.608;2023-07-24T02:58:00;7.20;;;4.10;;
4565;SDS011;2295;51.050;14.608;2023-07-24T03:00:28;5.30;;;4.00;;
4565;SDS011;2295;51.050;14.608;2023-07-24T03:02:56;4.80;;;3.47;;
4565;SDS011;2295;51.050;14.608;2023-07-24T03:05:26;10.10;;;3.60;;
4565;SDS011;2295;51.050;14.608;2023-07-24T03:07:55;6.87;;;4.27;;
4565;SDS011;2295;51.050;14.608;2023-07-24T03:10:23;5.23;;;4.10;;
4565;SDS011;2295;51.050;14.608;2023-07-24T03:12:51;6.03;;;4.30;;
4565;SDS011;2295;51.050;14.608;2023-07-24T03:15:20;6.03;;;3.50;;
4565;SDS011;2295;51.050;14.608;2023-07-24T03:17:48;4.83;;;4.03;;
4565;SDS011;2295;51.050;14.608;2023-07-24T03:20:17;4.30;;;3.53;;
4565;SDS011;2295;51.050;14.608;2023-07-24T03:22:48;5.10;;;3.40;;
4565;SDS011;2295;51.050;14.608;2023-07-24T03:25:16;6.60;;;4.47;;
4565;SDS011;2295;51.050;14.608;2023-07-24T03:27:45;6.13;;;4.23;;
4565;SDS011;2295;51.050;14.608;2023-07-24T03:30:13;7.50;;;4.50;;
4565;SDS011;2295;51.050;14.608;2023-07-24T03:32:42;6.47;;;4.40;;
4565;SDS011;2295;51.050;14.608;2023-07-24T03:35:10;5.03;;;3.77;;
4565;SDS011;2295;51.050;14.608;2023-07-24T03:37:38;8.77;;;4.00;;
4565;SDS011;2295;51.050;14.608;2023-07-24T03:40:08;5.07;;;4.10;;
4565;SDS011;2295;51.050;14.608;2023-07-24T03:42:37;9.60;;;3.97;;
4565;SDS011;2295;51.050;14.608;2023-07-24T03:45:06;4.60;;;3.80;;
4565;SDS011;2295;51.050;14.608;2023-07-24T03:47:35;8.13;;;3.87;;
4565;SDS011;2295;51.050;14.608;2023-07-24T03:50:07;8.97;;;4.00;;
4565;SDS011;2295;51.050;14.608;2023-07-24T03:52:36;5.20;;;3.70;;
4565;SDS011;2295;51.050;14.608;2023-07-24T03:55:05;5.83;;;3.90;;
4565;SDS011;2295;51.050;14.608;2023-07-24T03:57:35;6.13;;;4.20;;
4565;SDS011;2295;51.050;14.608;2023-07-24T04:00:04;10.80;;;3.50;;
4565;SDS011;2295;51.050;14.608;2023-07-24T04:02:33;8.47;;;4.10;;
4565;SDS011;2295;51.050;14.608;2023-07-24T04:05:02;6.40;;;3.67;;
4565;SDS011;2295;51.050;14.608;2023-07-24T04:07:31;5.93;;;4.20;;
4565;SDS011;2295;51.050;14.608;2023-07-24T04:09:59;6.10;;;4.20;;
4565;SDS011;2295;51.050;14.608;2023-07-24T04:12:28;5.10;;;3.90;;
4565;SDS011;2295;51.050;14.608;2023-07-24T04:14:58;4.70;;;3.50;;
4565;SDS011;2295;51.050;14.608;2023-07-24T04:17:26;8.53;;;3.73;;
4565;SDS011;2295;51.050;14.608;2023-07-24T04:19:55;7.30;;;4.63;;
4565;SDS011;2295;51.050;14.608;2023-07-24T04:22:23;7.80;;;4.50;;
4565;SDS011;2295;51.050;14.608;2023-07-24T04:24:52;9.43;;;3.93;;
4565;SDS011;2295;51.050;14.608;2023-07-24T04:27:21;4.73;;;4.07;;
4565;SDS011;2295;51.050;14.608;2023-07-24T04:29:49;8.10;;;3.90;;
4565;SDS011;2295;51.050;14.608;2023-07-24T04:32:19;7.33;;;4.47;;
4565;SDS011;2295;51.050;14.608;2023-07-24T04:34:47;10.00;;;3.97;;
4565;SDS011;2295;51.050;14.608;2023-07-24T04:37:16;9.47;;;4.70;;
4565;SDS011;2295;51.050;14.608;2023-07-24T04:39:44;5.33;;;4.00;;
4565;SDS011;2295;51.050;14.608;2023-07-24T04:42:12;9.47;;;4.57;;
4565;SDS011;2295;51.050;14.608;2023-07-24T04:44:41;7.30;;;4.47;;
4565;SDS011;2295;51.050;14.608;2023-07-24T04:47:09;5.00;;;4.00;;
4565;SDS011;2295;51.050;14.608;2023-07-24T04:49:39;4.87;;;3.97;;
4565;SDS011;2295;51.050;14.608;2023-07-24T04:52:07;9.00;;;4.30;;
4565;SDS011;2295;51.050;14.608;2023-07-24T04:54:35;12.03;;;4.20;;
4565;SDS011;2295;51.050;14.608;2023-07-24T04:57:04;8.60;;;4.00;;
4565;SDS011;2295;51.050;14.608;2023-07-24T04:59:32;6.00;;;4.70;;
4565;SDS011;2295;51.050;14.608;2023-07-24T05:02:00;7.17;;;4.40;;
4565;SDS011;2295;51.050;14.608;2023-07-24T05:04:29;8.73;;;4.07;;
4565;SDS011;2295;51.050;14.608;2023-07-24T05:06:58;7.77;;;3.73;;
4565;SDS011;2295;51.050;14.608;2023-07-24T05:09:27;14.33;;;5.00;;
4565;SDS011;2295;51.050;14.608;2023-07-24T05:11:55;12.43;;;4.57;;
4565;SDS011;2295;51.050;14.608;2023-07-24T05:14:23;12.37;;;4.80;;
4565;SDS011;2295;51.050;14.608;2023-07-24T05:16:51;12.10;;;4.93;;
4565;SDS011;2295;51.050;14.608;2023-07-24T05:19:20;11.80;;;5.37;;
4565;SDS011;2295;51.050;14.608;2023-07-24T05:21:48;6.60;;;4.53;;
4565;SDS011;2295;51.050;14.608;2023-07-24T05:24:18;13.73;;;4.70;;
4565;SDS011;2295;51.050;14.608;2023-07-24T05:26:46;7.70;;;5.07;;
4565;SDS011;2295;51.050;14.608;2023-07-24T05:29:15;18.60;;;4.47;;
4565;SDS011;2295;51.050;14.608;2023-07-24T05:31:43;11.03;;;4.53;;
4565;SDS011;2295;51.050;14.608;2023-07-24T05:34:11;13.90;;;4.43;;
4565;SDS011;2295;51.050;14.608;2023-07-24T05:36:40;12.23;;;4.60;;
4565;SDS011;2295;51.050;14.608;2023-07-24T05:39:08;17.73;;;5.30;;
4565;SDS011;2295;51.050;14.608;2023-07-24T05:41:38;10.43;;;4.63;;
4565;SDS011;2295;51.050;14.608;2023-07-24T05:44:07;8.80;;;5.20;;
4565;SDS011;2295;51.050;14.608;2023-07-24T05:46:35;11.03;;;4.83;;
4565;SDS011;2295;51.050;14.608;2023-07-24T05:49:03;14.63;;;4.63;;
4565;SDS011;2295;51.050;14.608;2023-07-24T05:51:32;14.10;;;5.07;;
4565;SDS011;2295;51.050;14.608;2023-07-24T05:54:00;9.37;;;4.73;;
4565;SDS011;2295;51.050;14.608;2023-07-24T05:56:28;5.73;;;4.70;;
4565;SDS011;2295;51.050;14.608;2023-07-24T05:58:59;9.70;;;4.53;;
4565;SDS011;2295;51.050;14.608;2023-07-24T06:01:27;15.93;;;4.90;;
4565;SDS011;2295;51.050;14.608;2023-07-24T06:03:55;7.10;;;4.40;;
4565;SDS011;2295;51.050;14.608;2023-07-24T06:06:24;6.23;;;4.20;;
4565;SDS011;2295;51.050;14.608;2023-07-24T06:08:55;6.63;;;4.90;;
4565;SDS011;2295;51.050;14.608;2023-07-24T06:11:23;4.83;;;4.30;;
4565;SDS011;2295;51.050;14.608;2023-07-24T06:13:53;5.40;;;4.50;;
4565;SDS011;2295;51.050;14.608;2023-07-24T06:16:23;6.80;;;4.57;;
4565;SDS011;2295;51.050;14.608;2023-07-24T06:18:52;6.53;;;4.73;;
4565;SDS011;2295;51.050;14.608;2023-07-24T06:21:20;19.33;;;5.10;;
4565;SDS011;2295;51.050;14.608;2023-07-24T06:23:48;5.90;;;4.80;;
4565;SDS011;2295;51.050;14.608;2023-07-24T06:26:17;6.57;;;4.50;;
4565;SDS011;2295;51.050;14.608;2023-07-24T06:28:45;13.07;;;4.60;;
4565;SDS011;2295;51.050;14.608;2023-07-24T06:31:13;7.50;;;4.30;;
4565;SDS011;2295;51.050;14.608;2023-07-24T06:33:43;4.37;;;3.97;;
4565;SDS011;2295;51.050;14.608;2023-07-24T06:36:12;7.60;;;5.03;;
4565;SDS011;2295;51.050;14.608;2023-07-24T06:38:46;9.17;;;4.50;;
4565;SDS011;2295;51.050;14.608;2023-07-24T06:41:15;6.60;;;4.37;;
4565;SDS011;2295;51.050;14.608;2023-07-24T06:43:43;5.90;;;4.23;;
4565;SDS011;2295;51.050;14.608;2023-07-24T06:46:11;6.60;;;4.60;;
4565;SDS011;2295;51.050;14.608;2023-07-24T06:48:40;6.83;;;4.37;;
4565;SDS011;2295;51.050;14.608;2023-07-24T06:51:11;6.23;;;3.50;;
4565;SDS011;2295;51.050;14.608;2023-07-24T06:53:42;5.93;;;4.00;;
4565;SDS011;2295;51.050;14.608;2023-07-24T06:56:17;5.20;;;4.40;;
4565;SDS011;2295;51.050;14.608;2023-07-24T06:58:45;6.53;;;4.30;;
4565;SDS011;2295;51.050;14.608;2023-07-24T07:01:13;3.90;;;3.50;;
4565;SDS011;2295;51.050;14.608;2023-07-24T07:03:42;5.37;;;4.47;;
4565;SDS011;2295;51.050;14.608;2023-07-24T07:06:11;3.97;;;3.47;;
4565;SDS011;2295;51.050;14.608;2023-07-24T07:08:43;5.53;;;3.50;;
4565;SDS011;2295;51.050;14.608;2023-07-24T07:11:11;4.50;;;3.67;;
4565;SDS011;2295;51.050;14.608;2023-07-24T07:13:39;10.47;;;4.33;;
4565;SDS011;2295;51.050;14.608;2023-07-24T07:16:08;7.30;;;5.00;;
4565;SDS011;2295;51.050;14.608;2023-07-24T07:18:36;5.07;;;4.47;;
4565;SDS011;2295;51.050;14.608;2023-07-24T07:21:05;7.00;;;4.23;;
4565;SDS011;2295;51.050;14.608;2023-07-24T07:23:37;5.50;;;5.00;;
4565;SDS011;2295;51.050;14.608;2023-07-24T07:26:12;6.83;;;4.60;;
4565;SDS011;2295;51.050;14.608;2023-07-24T07:28:40;6.20;;;4.37;;
4565;SDS011;2295;51.050;14.608;2023-07-24T07:31:09;6.63;;;4.87;;
4565;SDS011;2295;51.050;14.608;2023-07-24T07:33:37;5.77;;;3.90;;
4565;SDS011;2295;51.050;14.608;2023-07-24T07:36:05;6.60;;;4.60;;
4565;SDS011;2295;51.050;14.608;2023-07-24T07:38:34;4.93;;;4.30;;
4565;SDS011;2295;51.050;14.608;2023-07-24T07:41:05;4.53;;;4.13;;
4565;SDS011;2295;51.050;14.608;2023-07-24T07:43:33;6.77;;;4.33;;
4565;SDS011;2295;51.050;14.608;2023-07-24T07:46:02;8.77;;;5.23;;
4565;SDS011;2295;51.050;14.608;2023-07-24T07:48:31;7.73;;;4.13;;
4565;SDS011;2295;51.050;14.608;2023-07-24T07:50:59;5.20;;;4.50;;
4565;SDS011;2295;51.050;14.608;2023-07-24T07:53:28;8.03;;;4.00;;
4565;SDS011;2295;51.050;14.608;2023-07-24T07:55:58;7.97;;;5.00;;
4565;SDS011;2295;51.050;14.608;2023-07-24T07:58:28;8.23;;;4.47;;
4565;SDS011;2295;51.050;14.608;2023-07-24T08:00:57;6.17;;;4.83;;
4565;SDS011;2295;51.050;14.608;2023-07-24T08:03:25;7.73;;;4.57;;
4565;SDS011;2295;51.050;14.608;2023-07-24T08:05:56;9.00;;;4.37;;
4565;SDS011;2295;51.050;14.608;2023-07-24T08:08:28;5.17;;;4.33;;
4565;SDS011;2295;51.050;14.608;2023-07-24T08:10:56;5.43;;;4.50;;
4565;SDS011;2295;51.050;14.608;2023-07-24T08:13:24;8.70;;;4.27;;
4565;SDS011;2295;51.050;14.608;2023-07-24T08:15:54;5.63;;;4.07;;
4565;SDS011;2295;51.050;14.608;2023-07-24T08:18:22;7.77;;;4.43;;
4565;SDS011;2295;51.050;14.608;2023-07-24T08:20:51;7.87;;;4.60;;
4565;SDS011;2295;51.050;14.608;2023-07-24T08:23:19;7.90;;;3.73;;
4565;SDS011;2295;51.050;14.608;2023-07-24T08:25:50;6.20;;;3.60;;
4565;SDS011;2295;51.050;14.608;2023-07-24T08:28:20;8.90;;;4.00;;
4565;SDS011;2295;51.050;14.608;2023-07-24T08:30:56;10.67;;;3.80;;
4565;SDS011;2295;51.050;14.608;2023-07-24T08:33:26;11.40;;;3.57;;
4565;SDS011;2295;51.050;14.608;2023-07-24T08:36:00;6.10;;;3.50;;
4565;SDS011;2295;51.050;14.608;2023-07-24T08:38:30;4.97;;;3.47;;
4565;SDS011;2295;51.050;14.608;2023-07-24T08:41:02;5.00;;;3.40;;
4565;SDS011;2295;51.050;14.608;2023-07-24T08:43:31;4.60;;;3.83;;
4565;SDS011;2295;51.050;14.608;2023-07-24T08:46:02;9.87;;;5.70;;
4565;SDS011;2295;51.050;14.608;2023-07-24T08:48:32;3.83;;;3.53;;
4565;SDS011;2295;51.050;14.608;2023-07-24T08:51:03;5.63;;;3.43;;
4565;SDS011;2295;51.050;14.608;2023-07-24T08:53:32;4.00;;;3.60;;
4565;SDS011;2295;51.050;14.608;2023-07-24T08:56:02;5.63;;;3.83;;
4565;SDS011;2295;51.050;14.608;2023-07-24T08:58:31;4.17;;;3.80;;
4565;SDS011;2295;51.050;14.608;2023-07-24T09:01:02;3.63;;;3.33;;
4565;SDS011;2295;51.050;14.608;2023-07-24T09:03:31;6.40;;;3.70;;
4565;SDS011;2295;51.050;14.608;2023-07-24T09:06:01;6.97;;;4.07;;
4565;SDS011;2295;51.050;14.608;2023-07-24T09:08:30;11.50;;;3.63;;
4565;SDS011;2295;51.050;14.608;2023-07-24T09:11:00;3.50;;;3.30;;
4565;SDS011;2295;51.050;14.608;2023-07-24T09:13:30;4.70;;;3.40;;
4565;SDS011;2295;51.050;14.608;2023-07-24T09:15:59;4.17;;;3.77;;
4565;SDS011;2295;51.050;14.608;2023-07-24T09:18:37;6.50;;;4.23;;
4565;SDS011;2295;51.050;14.608;2023-07-24T09:21:07;7.30;;;5.00;;
4565;SDS011;2295;51.050;14.608;2023-07-24T09:23:36;7.73;;;4.80;;
4565;SDS011;2295;51.050;14.608;2023-07-24T09:26:07;5.00;;;4.50;;
4565;SDS011;2295;51.050;14.608;2023-07-24T09:28:35;7.33;;;5.37;;
4565;SDS011;2295;51.050;14.608;2023-07-24T09:31:04;6.80;;;5.57;;
4565;SDS011;2295;51.050;14.608;2023-07-24T09:33:37;5.33;;;4.70;;
4565;SDS011;2295;51.050;14.608;2023-07-24T09:36:07;6.20;;;5.60;;
4565;SDS011;2295;51.050;14.608;2023-07-24T09:38:37;10.40;;;5.67;;
4565;SDS011;2295;51.050;14.608;2023-07-24T09:41:06;11.13;;;4.90;;
4565;SDS011;2295;51.050;14.608;2023-07-24T09:43:35;10.83;;;5.77;;
4565;SDS011;2295;51.050;14.608;2023-07-24T09:46:07;15.50;;;6.50;;
4565;SDS011;2295;51.050;14.608;2023-07-24T09:48:38;6.90;;;5.70;;
4565;SDS011;2295;51.050;14.608;2023-07-24T09:51:28;6.50;;;5.83;;
4565;SDS011;2295;51.050;14.608;2023-07-24T09:53:58;6.00;;;5.40;;
4565;SDS011;2295;51.050;14.608;2023-07-24T09:56:33;5.90;;;5.30;;
4565;SDS011;2295;51.050;14.608;2023-07-24T09:59:17;8.27;;;5.57;;
4565;SDS011;2295;51.050;14.608;2023-07-24T10:01:47;7.60;;;5.70;;
4565;SDS011;2295;51.050;14.608;2023-07-24T10:04:17;6.63;;;5.87;;
4565;SDS011;2295;51.050;14.608;2023-07-24T10:06:46;7.10;;;5.00;;
4565;SDS011;2295;51.050;14.608;2023-07-24T10:09:15;5.40;;;4.90;;
4565;SDS011;2295;51.050;14.608;2023-07-24T10:11:45;5.23;;;4.73;;
4565;SDS011;2295;51.050;14.608;2023-07-24T10:14:14;8.73;;;5.73;;
4565;SDS011;2295;51.050;14.608;2023-07-24T10:16:44;5.80;;;4.90;;
4565;SDS011;2295;51.050;14.608;2023-07-24T10:19:16;9.37;;;6.00;;
4565;SDS011;2295;51.050;14.608;2023-07-24T10:21:46;8.83;;;5.40;;
4565;SDS011;2295;51.050;14.608;2023-07-24T10:24:15;6.33;;;5.27;;
4565;SDS011;2295;51.050;14.608;2023-07-24T10:27:04;8.97;;;5.80;;
4565;SDS011;2295;51.050;14.608;2023-07-24T10:29:36;9.90;;;6.17;;
4565;SDS011;2295;51.050;14.608;2023-07-24T10:32:16;7.03;;;5.60;;
4565;SDS011;2295;51.050;14.608;2023-07-24T10:34:46;9.90;;;5.57;;
4565;SDS011;2295;51.050;14.608;2023-07-24T10:37:31;13.33;;;6.43;;
4565;SDS011;2295;51.050;14.608;2023-07-24T10:40:00;10.87;;;6.00;;
4565;SDS011;2295;51.050;14.608;2023-07-24T10:42:30;7.73;;;6.17;;
4565;SDS011;2295;51.050;14.608;2023-07-24T10:45:06;8.10;;;5.70;;
4565;SDS011;2295;51.050;14.608;2023-07-24T10:47:36;10.10;;;5.97;;
4565;SDS011;2295;51.050;14.608;2023-07-24T10:50:07;11.53;;;6.30;;
4565;SDS011;2295;51.050;14.608;2023-07-24T10:52:35;7.90;;;5.90;;
4565;SDS011;2295;51.050;14.608;2023-07-24T10:55:04;10.40;;;5.60;;
4565;SDS011;2295;51.050;14.608;2023-07-24T10:57:33;9.33;;;6.50;;
4565;SDS011;2295;51.050;14.608;2023-07-24T11:00:01;12.80;;;6.50;;
4565;SDS011;2295;51.050;14.608;2023-07-24T11:02:30;8.57;;;6.93;;
4565;SDS011;2295;51.050;14.608;2023-07-24T11:04:58;7.67;;;6.30;;
4565;SDS011;2295;51.050;14.608;2023-07-24T11:07:33;12.60;;;7.20;;
4565;SDS011;2295;51.050;14.608;2023-07-24T11:10:01;11.47;;;6.43;;
4565;SDS011;2295;51.050;14.608;2023-07-24T11:12:30;14.10;;;7.30;;
4565;SDS011;2295;51.050;14.608;2023-07-24T11:14:58;14.40;;;7.27;;
4565;SDS011;2295;51.050;14.608;2023-07-24T11:17:33;16.10;;;8.03;;
4565;SDS011;2295;51.050;14.608;2023-07-24T11:20:08;27.70;;;7.97;;
4565;SDS011;2295;51.050;14.608;2023-07-24T11:22:40;20.03;;;8.00;;
4565;SDS011;2295;51.050;14.608;2023-07-24T11:25:09;16.40;;;8.13;;
4565;SDS011;2295;51.050;14.608;2023-07-24T11:27:39;14.63;;;8.37;;
4565;SDS011;2295;51.050;14.608;2023-07-24T11:30:10;17.60;;;8.80;;
4565;SDS011;2295;51.050;14.608;2023-07-24T11:32:39;13.33;;;9.40;;
4565;SDS011;2295;51.050;14.608;2023-07-24T11:35:08;14.60;;;8.30;;
4565;SDS011;2295;51.050;14.608;2023-07-24T11:37:37;12.77;;;7.43;;
4565;SDS011;2295;51.050;14.608;2023-07-24T11:40:07;11.70;;;7.13;;
4565;SDS011;2295;51.050;14.608;2023-07-24T11:42:38;18.23;;;8.60;;
4565;SDS011;2295;51.050;14.608;2023-07-24T11:45:07;19.20;;;7.90;;
4565;SDS011;2295;51.050;14.608;2023-07-24T11:47:44;14.30;;;7.60;;
4565;SDS011;2295;51.050;14.608;2023-07-24T11:50:13;13.10;;;7.50;;
4565;SDS011;2295;51.050;14.608;2023-07-24T11:52:43;11.57;;;6.53;;
4565;SDS011;2295;51.050;14.608;2023-07-24T11:55:17;16.40;;;7.27;;
4565;SDS011;2295;51.050;14.608;2023-07-24T11:57:56;21.73;;;7.47;;
4565;SDS011;2295;51.050;14.608;2023-07-24T12:00:25;15.33;;;6.57;;
4565;SDS011;2295;51.050;14.608;2023-07-24T12:02:58;9.53;;;6.73;;
4565;SDS011;2295;51.050;14.608;2023-07-24T12:05:37;9.33;;;6.90;;
4565;SDS011;2295;51.050;14.608;2023-07-24T12:08:09;8.83;;;6.73;;
4565;SDS011;2295;51.050;14.608;2023-07-24T12:10:40;9.03;;;6.60;;
4565;SDS011;2295;51.050;14.608;2023-07-24T12:13:09;9.73;;;6.50;;
4565;SDS011;2295;51.050;14.608;2023-07-24T12:15:40;7.93;;;5.90;;
4565;SDS011;2295;51.050;14.608;2023-07-24T12:18:08;9.70;;;5.90;;
4565;SDS011;2295;51.050;14.608;2023-07-24T12:20:36;13.40;;;6.30;;
4565;SDS011;2295;51.050;14.608;2023-07-24T12:23:05;7.00;;;5.70;;
4565;SDS011;2295;51.050;14.608;2023-07-24T12:25:34;13.60;;;6.40;;
4565;SDS011;2295;51.050;14.608;2023-07-24T12:28:04;7.30;;;5.90;;
4565;SDS011;2295;51.050;14.608;2023-07-24T12:30:33;8.40;;;5.87;;
4565;SDS011;2295;51.050;14.608;2023-07-24T12:33:06;6.77;;;6.00;;
4565;SDS011;2295;51.050;14.608;2023-07-24T12:35:34;13.93;;;6.30;;
4565;SDS011;2295;51.050;14.608;2023-07-24T12:38:03;10.13;;;6.37;;
4565;SDS011;2295;51.050;14.608;2023-07-24T12:40:31;10.33;;;6.40;;
4565;SDS011;2295;51.050;14.608;2023-07-24T12:43:02;9.80;;;6.17;;
4565;SDS011;2295;51.050;14.608;2023-07-24T12:45:32;10.27;;;6.60;;
4565;SDS011;2295;51.050;14.608;2023-07-24T12:48:03;9.37;;;7.43;;
4565;SDS011;2295;51.050;14.608;2023-07-24T12:50:32;9.33;;;6.73;;
4565;SDS011;2295;51.050;14.608;2023-07-24T12:53:04;10.57;;;7.30;;
4565;SDS011;2295;51.050;14.608;2023-07-24T12:55:39;10.00;;;7.20;;
4565;SDS011;2295;51.050;14.608;2023-07-24T12:58:07;10.87;;;6.97;;
4565;SDS011;2295;51.050;14.608;2023-07-24T13:00:37;9.73;;;7.27;;
4565;SDS011;2295;51.050;14.608;2023-07-24T13:03:05;10.00;;;7.93;;
4565;SDS011;2295;51.050;14.608;2023-07-24T13:05:33;12.30;;;7.30;;
4565;SDS011;2295;51.050;14.608;2023-07-24T13:08:02;11.47;;;6.63;;
4565;SDS011;2295;51.050;14.608;2023-07-24T13:10:30;8.93;;;6.80;;
4565;SDS011;2295;51.050;14.608;2023-07-24T13:12:58;10.63;;;7.43;;
4565;SDS011;2295;51.050;14.608;2023-07-24T13:15:27;9.90;;;8.00;;
4565;SDS011;2295;51.050;14.608;2023-07-24T13:18:00;9.37;;;7.50;;
4565;SDS011;2295;51.050;14.608;2023-07-24T13:20:47;9.53;;;7.23;;
4565;SDS011;2295;51.050;14.608;2023-07-24T13:23:16;13.23;;;7.63;;
4565;SDS011;2295;51.050;14.608;2023-07-24T13:25:44;10.80;;;7.90;;
4565;SDS011;2295;51.050;14.608;2023-07-24T13:28:13;10.57;;;7.70;;
4565;SDS011;2295;51.050;14.608;2023-07-24T13:30:41;13.57;;;8.20;;
4565;SDS011;2295;51.050;14.608;2023-07-24T13:33:11;14.10;;;7.60;;
4565;SDS011;2295;51.050;14.608;2023-07-24T13:35:39;13.40;;;7.80;;
4565;SDS011;2295;51.050;14.608;2023-07-24T13:38:07;11.60;;;7.97;;
4565;SDS011;2295;51.050;14.608;2023-07-24T13:40:36;11.97;;;7.50;;
4565;SDS011;2295;51.050;14.608;2023-07-24T13:43:04;13.30;;;8.00;;
4565;SDS011;2295;51.050;14.608;2023-07-24T13:45:32;20.03;;;11.00;;
4565;SDS011;2295;51.050;14.608;2023-07-24T13:48:01;21.73;;;10.43;;
4565;SDS011;2295;51.050;14.608;2023-07-24T13:50:31;26.67;;;12.40;;
4565;SDS011;2295;51.050;14.608;2023-07-24T13:52:59;26.77;;;12.43;;
4565;SDS011;2295;51.050;14.608;2023-07-24T13:55:27;26.00;;;12.90;;
4565;SDS011;2295;51.050;14.608;2023-07-24T13:57:56;17.90;;;10.07;;
4565;SDS011;2295;51.050;14.608;2023-07-24T14:00:24;21.57;;;9.73;;
4565;SDS011;2295;51.050;14.608;2023-07-24T14:02:53;20.73;;;9.40;;
4565;SDS011;2295;51.050;14.608;2023-07-24T14:05:21;15.27;;;9.67;;
4565;SDS011;2295;51.050;14.608;2023-07-24T14:07:51;16.03;;;9.20;;
4565;SDS011;2295;51.050;14.608;2023-07-24T14:10:19;14.63;;;9.03;;
4565;SDS011;2295;51.050;14.608;2023-07-24T14:12:48;23.20;;;11.40;;
4565;SDS011;2295;51.050;14.608;2023-07-24T14:15:19;16.13;;;9.37;;
4565;SDS011;2295;51.050;14.608;2023-07-24T14:17:47;17.00;;;9.50;;
4565;SDS011;2295;51.050;14.608;2023-07-24T14:20:15;17.20;;;8.67;;
4565;SDS011;2295;51.050;14.608;2023-07-24T14:22:44;16.67;;;9.10;;
4565;SDS011;2295;51.050;14.608;2023-07-24T14:25:13;14.07;;;8.10;;
4565;SDS011;2295;51.050;14.608;2023-07-24T14:27:42;13.93;;;8.70;;
4565;SDS011;2295;51.050;14.608;2023-07-24T14:30:11;12.57;;;7.57;;
4565;SDS011;2295;51.050;14.608;2023-07-24T14:32:39;9.90;;;6.93;;
4565;SDS011;2295;51.050;14.608;2023-07-24T14:35:08;12.23;;;7.60;;
4565;SDS011;2295;51.050;14.608;2023-07-24T14:37:36;11.73;;;6.77;;
4565;SDS011;2295;51.050;14.608;2023-07-24T14:40:05;11.30;;;6.97;;
4565;SDS011;2295;51.050;14.608;2023-07-24T14:42:35;11.83;;;6.83;;
4565;SDS011;2295;51.050;14.608;2023-07-24T14:45:07;9.73;;;7.20;;
4565;SDS011;2295;51.050;14.608;2023-07-24T14:47:36;11.53;;;7.80;;
4565;SDS011;2295;51.050;14.608;2023-07-24T14:50:05;9.37;;;7.43;;
4565;SDS011;2295;51.050;14.608;2023-07-24T14:52:34;13.37;;;7.77;;
4565;SDS011;2295;51.050;14.608;2023-07-24T14:55:03;10.53;;;7.17;;
4565;SDS011;2295;51.050;14.608;2023-07-24T14:57:32;9.47;;;6.83;;
4565;SDS011;2295;51.050;14.608;2023-07-24T15:00:06;11.57;;;7.70;;
4565;SDS011;2295;51.050;14.608;2023-07-24T15:02:35;12.50;;;7.53;;
4565;SDS011;2295;51.050;14.608;2023-07-24T15:05:03;10.47;;;7.87;;
4565;SDS011;2295;51.050;14.608;2023-07-24T15:07:32;10.83;;;7.03;;
4565;SDS011;2295;51.050;14.608;2023-07-24T15:10:04;12.00;;;7.73;;
4565;SDS011;2295;51.050;14.608;2023-07-24T15:12:37;11.50;;;7.10;;
4565;SDS011;2295;51.050;14.608;2023-07-24T15:15:09;14.53;;;7.40;;